Tropical Cyclones
[Index]
Main Index Home Page Stock Weather Photos Extreme Storms Discussion Storm News and Storm Chasing Reports Tropical Cyclones / Hurricanes / Typhoons Weather Data and Links Wild Fires / Bushfires Weather Observation Techniques Weather Picture Catalogue Tornado Pictures and Reports Stock Video Footage and DVDs for sale
Season 2006-2007 Tropical Cyclone FAVIO Track Map
Season 2006-2007 Summaries (Operational Data): [AU] [SIO] [SPAC] [SH]
<<- Previous TC | 2006-2007 Season | Next TC ->>

click for intensity scale information  Lat/long Grid: Show Hide

 Date Labels: Show Hide

Operational Tropical Cyclone Data : JTWC Advisories

Name: FAVIO
Number: 0714

12 Feb 2007 00:00 UTC to 23 Feb 2007 12:00 UTC

    date/time    lat    long     hPa   cat  kts
2007-02-12 00   10.3    70.0    1004         20          
2007-02-12 06   11.2    69.9                             
2007-02-12 12   11.7    69.6    1002         25          
2007-02-12 18   11.6    69.4    1000         25          
2007-02-13 00   11.7    69.6    1002         25          
2007-02-13 06   12.2    69.9    1001         25          
2007-02-13 12   12.5    69.4    1004         25          
2007-02-13 18   12.8    69.0    1001         25          
2007-02-14 00   12.8    69.0    1001         25          
2007-02-14 06   14.9    67.4    1001         25          
2007-02-14 12   15.4    66.4    1000         25          
2007-02-14 18   15.4    66.1     998         30          
2007-02-15 00   16.3    65.2     996         30          
2007-02-15 06   17.7    64.0     995    1    35          
2007-02-15 12   18.7    62.2     995    1    35          
2007-02-15 18   19.7    61.6     995    1    35          
2007-02-16 00   21.3    60.3     992    1    40          
2007-02-16 06   22.1    59.8     990    1    40          
2007-02-16 12   23.2    58.4     990    1    40          
2007-02-16 18   23.9    57.5     990    1    40          
2007-02-17 00   24.8    56.0     990    1    40          
2007-02-17 06   25.4    54.5     990    1    40          
2007-02-17 12   25.5    53.2     990    1    45          
2007-02-17 18   26.1    52.0     987    1    45          
2007-02-18 00   25.9    50.3     987    1    45          
2007-02-18 06   26.3    49.1     985    2    50          
2007-02-18 12   26.6    48.1     980    2    55          
2007-02-18 18   26.7    47.4     980    2    55          
2007-02-19 00   26.6    46.6     970    2    60          
2007-02-19 06   26.5    46.1     970    3    65          
2007-02-19 12   26.6    45.3     964    3    70          
2007-02-19 18   26.4    44.7     960    3    70          
2007-02-20 00   25.8    43.7     955    3    80          
2007-02-20 06   25.4    42.8     945    4    90          
2007-02-20 12   25.2    41.8     935    4   100          
2007-02-20 18   25.0    41.0     930    4   100          
2007-02-21 00   24.5    39.9     930    4   100          
2007-02-21 06   24.1    38.9     930    4   100          
2007-02-21 12   23.8    38.1     940    4    95          
2007-02-21 18   23.3    37.0     940    4    90          
2007-02-22 00   23.0    36.2     940    4    90          
2007-02-22 06   22.3    35.7     935    4    95          
2007-02-22 12   21.7    35.0     935    4    90          
2007-02-22 18   20.7    34.4            2    60          
2007-02-23 00   20.1    34.1            1    40          
2007-02-23 06   19.7    33.8                 30          
2007-02-23 12   19.1    32.6                 25          
Winds are 10-min average.

Tropical cyclone tracks developed by Michael Bath using operational warnings and advisories and Google Maps.


[Australian Severe Weather index] [Copyright Notice] [Email Contacts] [Search This Site] [Privacy Policy]
Document: tropical_cyclone_favio.htm Updated: 28 May 2013